Time;durP1;ratioP1;P1;durP2;ratioP2;P2;SDS_P1;SDS_P2;PMS_P1;PMS_P2;Temp;Humidity;BMP_temperature;BMP_pressure;BME280_temperature;BME280_humidity;BME280_pressure;Samples;Min_cycle;Max_cycle;Signal;HPM_P1;HPM_P2
2022/03/22 00:01:18;;;;;;;37.13;17.20;;;;;;;4.52;52.61;100548.81;5225238;28;20052;-66
2022/03/22 00:04:08;;;;;;;35.88;17.42;;;;;;;4.41;53.51;100541.41;5225312;28;20082;-67
2022/03/22 00:06:58;;;;;;;36.00;17.65;;;;;;;4.35;53.59;100552.19;5224855;28;20045;-66
2022/03/22 00:09:48;;;;;;;34.63;16.85;;;;;;;4.23;53.60;100537.78;5225057;28;20051;-66
2022/03/22 00:12:38;;;;;;;32.25;17.13;;;;;;;4.04;53.96;100544.72;5209644;28;20670;-66
2022/03/22 00:15:27;;;;;;;33.35;15.75;;;;;;;3.95;54.83;100552.09;5224385;28;20145;-67
2022/03/22 00:18:39;;;;;;;41.05;17.00;;;;;;;3.84;53.71;100546.44;5225216;28;20048;-66
2022/03/22 00:21:29;;;;;;;33.15;16.90;;;;;;;3.88;54.26;100555.03;5224562;28;20538;-66
2022/03/22 00:24:19;;;;;;;33.47;16.85;;;;;;;3.82;54.11;100550.88;5225108;28;20056;-66
2022/03/22 00:27:08;;;;;;;35.53;18.52;;;;;;;4.14;53.51;100546.94;5224498;28;20059;-66
2022/03/22 00:29:58;;;;;;;34.97;17.30;;;;;;;3.93;54.50;100551.28;5224494;28;20051;-67
2022/03/22 00:32:54;;;;;;;35.65;16.88;;;;;;;3.67;55.47;100547.09;5224965;28;20158;-67
2022/03/22 00:35:44;;;;;;;33.40;17.30;;;;;;;3.48;55.88;100543.53;5208708;28;20048;-66
2022/03/22 00:38:33;;;;;;;35.55;18.30;;;;;;;3.69;55.89;100549.69;5224739;28;20577;-66
2022/03/22 00:41:23;;;;;;;38.47;17.70;;;;;;;3.72;55.63;100553.03;5224107;28;20076;-66
2022/03/22 00:44:14;;;;;;;35.72;17.27;;;;;;;3.47;55.81;100542.66;5224591;28;20120;-66
2022/03/22 00:47:08;;;;;;;33.90;17.63;;;;;;;3.57;55.43;100537.91;5224270;28;20045;-66
2022/03/22 00:49:58;;;;;;;38.42;16.85;;;;;;;3.61;55.69;100549.13;5224522;28;20161;-66
2022/03/22 00:52:48;;;;;;;37.63;17.23;;;;;;;3.48;55.34;100546.16;5223205;28;20053;-66
2022/03/22 00:55:43;;;;;;;33.20;17.15;;;;;;;3.67;55.11;100533.13;5223819;28;20051;-67
2022/03/22 00:58:34;;;;;;;37.53;17.20;;;;;;;3.59;54.88;100530.84;5223867;28;20049;-67
2022/03/22 01:01:24;;;;;;;36.45;17.45;;;;;;;3.44;55.50;100540.16;5224187;28;20511;-67
2022/03/22 01:04:15;;;;;;;35.50;17.45;;;;;;;3.49;56.01;100543.47;5224004;28;20511;-65
2022/03/22 01:07:05;;;;;;;34.17;17.27;;;;;;;3.64;54.82;100539.38;5223613;28;20643;-66
2022/03/22 01:09:56;;;;;;;40.75;18.23;;;;;;;3.54;55.66;100538.03;5224068;28;20190;-67
2022/03/22 01:12:47;;;;;;;35.75;16.85;;;;;;;3.27;55.04;100516.38;5208745;28;20610;-66
2022/03/22 01:15:37;;;;;;;35.83;17.90;;;;;;;3.37;55.78;100515.09;5223681;28;20051;-66
2022/03/22 01:18:27;;;;;;;38.42;18.65;;;;;;;3.36;55.50;100534.38;5223088;28;20056;-66
2022/03/22 01:21:17;;;;;;;31.83;16.95;;;;;;;3.13;55.37;100531.78;5223215;28;20126;-66
2022/03/22 01:24:08;;;;;;;35.00;17.83;;;;;;;2.97;56.55;100527.13;5223852;28;20048;-66
2022/03/22 01:26:58;;;;;;;32.30;16.80;;;;;;;2.91;55.91;100526.50;5223711;28;20056;-65
2022/03/22 01:29:48;;;;;;;36.08;16.75;;;;;;;2.92;56.98;100533.47;5223353;28;20584;-65
2022/03/22 01:32:38;;;;;;;35.90;18.00;;;;;;;2.92;57.26;100518.59;5222657;28;20053;-66
2022/03/22 01:35:28;;;;;;;38.20;18.50;;;;;;;3.03;57.69;100515.56;5223423;28;20063;-66
2022/03/22 01:38:19;;;;;;;35.97;17.63;;;;;;;3.06;56.45;100513.69;5222281;28;20162;-66
2022/03/22 01:41:09;;;;;;;36.75;18.33;;;;;;;2.97;57.24;100521.88;5209477;28;20091;-66
2022/03/22 01:44:00;;;;;;;32.13;17.58;;;;;;;2.81;57.49;100518.13;5223306;28;20056;-66
2022/03/22 01:46:53;;;;;;;36.22;18.10;;;;;;;2.68;57.46;100523.00;5223218;28;20096;-66
2022/03/22 01:49:43;;;;;;;33.28;17.95;;;;;;;2.69;57.80;100526.47;5209064;28;20110;-66
2022/03/22 01:52:36;;;;;;;34.13;17.20;;;;;;;2.27;57.74;100480.81;5223003;28;20427;-65
2022/03/22 01:55:26;;;;;;;43.53;19.92;;;;;;;2.69;57.36;100511.59;5222871;28;20565;-66
2022/03/22 01:58:17;;;;;;;32.97;17.95;;;;;;;2.77;57.80;100514.78;5222734;28;20056;-66
2022/03/22 02:07:27;;;;;;;38.85;19.33;;;;;;;2.97;56.97;100515.78;5222708;28;20071;-66
2022/03/22 02:10:18;;;;;;;48.08;18.48;;;;;;;2.89;58.14;100512.63;5222948;28;20518;-66
2022/03/22 02:13:07;;;;;;;43.75;18.70;;;;;;;2.90;56.73;100509.94;5223126;28;20087;-65
2022/03/22 02:16:01;;;;;;;39.42;19.33;;;;;;;2.49;58.05;100480.06;5218738;28;20536;-66
2022/03/22 02:18:52;;;;;;;39.45;19.50;;;;;;;2.63;57.59;100514.44;5222886;28;20068;-65
2022/03/22 02:21:42;;;;;;;39.20;19.27;;;;;;;2.35;57.14;100504.97;5222712;28;20096;-66
2022/03/22 02:24:32;;;;;;;39.35;18.88;;;;;;;2.38;58.77;100511.84;5222391;28;20053;-65
2022/03/22 02:27:25;;;;;;;36.53;19.20;;;;;;;2.29;58.98;100518.28;5222526;28;20079;-65
2022/03/22 02:30:15;;;;;;;40.13;20.33;;;;;;;2.49;59.44;100514.09;5224118;28;20138;-65
2022/03/22 02:33:06;;;;;;;42.53;21.80;;;;;;;2.50;58.85;100506.19;5227193;28;20147;-66
2022/03/22 02:35:56;;;;;;;33.92;18.48;;;;;;;2.39;57.76;100503.09;5210804;28;20045;-66
2022/03/22 02:38:46;;;;;;;39.38;18.73;;;;;;;2.25;58.53;100511.47;5226759;28;20072;-66
2022/03/22 02:41:36;;;;;;;34.58;18.45;;;;;;;2.19;57.91;100514.28;5226682;28;20064;-66
2022/03/22 02:44:26;;;;;;;41.47;19.15;;;;;;;2.23;58.66;100510.66;5227344;28;20072;-65
2022/03/22 02:47:16;;;;;;;38.47;18.75;;;;;;;2.55;58.69;100513.84;5226085;28;20118;-66
2022/03/22 02:50:07;;;;;;;39.65;20.20;;;;;;;2.39;58.27;100502.25;5227324;28;20491;-66
2022/03/22 02:52:57;;;;;;;43.33;19.42;;;;;;;2.16;58.32;100505.69;5226633;28;20277;-66
2022/03/22 02:55:48;;;;;;;37.97;19.67;;;;;;;1.97;58.94;100474.06;5226441;28;20676;-67
2022/03/22 02:58:40;;;;;;;36.05;18.63;;;;;;;2.11;58.30;100503.22;5225573;28;20186;-66
2022/03/22 03:01:32;;;;;;;38.70;20.25;;;;;;;2.11;59.57;100500.59;5226605;28;20110;-66
2022/03/22 03:04:22;;;;;;;33.80;17.98;;;;;;;1.91;60.35;100503.91;5211925;28;20525;-67
2022/03/22 03:07:13;;;;;;;40.70;19.52;;;;;;;1.91;59.02;100497.81;5225949;28;20060;-66
2022/03/22 03:10:04;;;;;;;41.08;21.35;;;;;;;2.02;61.17;100511.38;5225583;28;20139;-66
2022/03/22 03:13:03;;;;;;;39.70;18.60;;;;;;;2.06;60.39;100510.38;5226284;28;20423;-66
2022/03/22 03:15:53;;;;;;;41.03;19.55;;;;;;;2.15;60.39;100503.97;5225683;28;20084;-66
2022/03/22 03:18:43;;;;;;;38.03;19.75;;;;;;;2.19;60.81;100521.28;5225918;28;20118;-65
2022/03/22 03:21:34;;;;;;;36.97;18.70;;;;;;;2.04;60.95;100527.88;5225586;28;20063;-65
2022/03/22 03:24:24;;;;;;;39.03;18.15;;;;;;;1.99;60.32;100522.81;5210769;28;20052;-65
2022/03/22 03:27:15;;;;;;;43.17;19.00;;;;;;;1.91;61.26;100531.81;5226186;28;20053;-65
2022/03/22 03:30:06;;;;;;;37.50;18.15;;;;;;;1.87;61.23;100525.84;5226081;28;20084;-66
2022/03/22 03:32:57;;;;;;;40.13;20.40;;;;;;;2.01;61.20;100531.44;5225325;28;20044;-66
2022/03/22 03:35:47;;;;;;;39.83;19.38;;;;;;;2.04;62.49;100533.13;5225439;28;20055;-67
2022/03/22 03:38:41;;;;;;;38.42;19.50;;;;;;;2.13;61.39;100522.34;5225624;28;20072;-66
2022/03/22 03:47:49;;;;;;;37.95;19.08;;;;;;;1.98;60.33;100535.94;5225882;28;20203;-67
2022/03/22 03:50:39;;;;;;;41.80;19.27;;;;;;;2.22;60.42;100535.13;5225046;28;20053;-66
2022/03/22 03:53:29;;;;;;;47.90;19.02;;;;;;;2.24;58.70;100528.03;5225625;28;20056;-66
2022/03/22 03:56:19;;;;;;;41.25;19.77;;;;;;;1.88;59.99;100533.63;5225518;28;20060;-66
2022/03/22 03:59:09;;;;;;;41.20;19.70;;;;;;;1.86;59.88;100532.84;5225465;28;20078;-67
2022/03/22 04:01:59;;;;;;;35.42;19.45;;;;;;;1.84;61.13;100542.47;5225511;28;20521;-66
2022/03/22 04:04:52;;;;;;;39.33;19.13;;;;;;;1.75;60.88;100521.84;5224792;28;20064;-67
2022/03/22 04:07:42;;;;;;;36.88;18.73;;;;;;;1.69;59.87;100543.00;5212846;28;20072;-66
2022/03/22 04:10:34;;;;;;;39.35;19.25;;;;;;;1.58;60.94;100532.03;5225514;28;20118;-67
2022/03/22 04:13:24;;;;;;;39.83;19.85;;;;;;;1.72;61.19;100542.88;5210005;28;20455;-67
2022/03/22 04:16:14;;;;;;;37.15;19.05;;;;;;;1.34;60.82;100495.31;5225081;28;20426;-67
2022/03/22 04:19:08;;;;;;;41.67;20.33;;;;;;;1.78;61.10;100540.06;5223273;28;20095;-66
2022/03/22 04:21:58;;;;;;;40.58;19.90;;;;;;;1.65;59.79;100546.59;5224872;28;20111;-66
2022/03/22 04:24:48;;;;;;;37.80;19.55;;;;;;;1.57;61.48;100544.25;5224931;28;20526;-67
2022/03/22 04:33:55;;;;;;;41.50;18.77;;;;;;;1.53;60.03;100545.25;5224304;28;20571;-67
2022/03/22 04:36:55;;;;;;;39.78;20.60;;;;;;;1.65;60.93;100546.59;5221762;28;20503;-66
2022/03/22 04:39:46;;;;;;;41.10;20.92;;;;;;;1.41;60.09;100550.84;5224272;28;20450;-67
2022/03/22 04:42:37;;;;;;;41.45;20.13;;;;;;;1.56;60.89;100560.84;5224584;28;20053;-67
2022/03/22 04:45:26;;;;;;;40.30;20.83;;;;;;;1.43;61.55;100537.75;5224039;28;20102;-66
2022/03/22 04:48:17;;;;;;;39.03;21.17;;;;;;;1.60;61.32;100558.97;5224490;28;20044;-67
2022/03/22 04:57:26;;;;;;;36.75;19.52;;;;;;;1.47;61.20;100555.91;5224237;28;20064;-69
2022/03/22 05:00:16;;;;;;;42.97;20.33;;;;;;;1.36;61.44;100553.63;5223899;28;20415;-68
2022/03/22 05:03:08;;;;;;;43.13;21.10;;;;;;;1.40;61.66;100572.69;5224341;28;20059;-68
2022/03/22 05:09:10;;;;;;;43.00;20.65;;;;;;;1.63;60.30;100569.34;5224245;28;20100;-70
2022/03/22 05:12:02;;;;;;;45.25;19.70;;;;;;;1.59;61.29;100570.31;5209166;28;20559;-68
2022/03/22 05:14:52;;;;;;;39.90;19.33;;;;;;;1.29;60.84;100569.50;5224001;28;20484;-67
2022/03/22 05:17:43;;;;;;;43.08;21.50;;;;;;;1.39;61.05;100582.28;5223537;28;20525;-68
2022/03/22 05:20:33;;;;;;;37.50;18.85;;;;;;;1.21;59.85;100576.75;5222422;28;20722;-66
2022/03/22 05:23:23;;;;;;;34.55;18.02;;;;;;;1.22;59.82;100579.28;5223922;28;20136;-67
2022/03/22 05:26:14;;;;;;;43.10;20.67;;;;;;;1.05;62.27;100558.91;5223311;28;20057;-67
2022/03/22 05:29:05;;;;;;;42.72;20.05;;;;;;;1.41;60.63;100579.59;5210110;28;20125;-67
2022/03/22 05:31:55;;;;;;;46.25;20.20;;;;;;;1.21;60.74;100580.22;5222029;28;20051;-66
2022/03/22 05:34:45;;;;;;;43.55;20.30;;;;;;;1.53;61.20;100581.00;5222140;28;20154;-67
2022/03/22 05:37:35;;;;;;;53.42;21.08;;;;;;;1.43;61.82;100587.41;5222178;28;20060;-67
2022/03/22 05:40:25;;;;;;;47.25;21.02;;;;;;;1.41;61.22;100590.06;5209408;28;20055;-66
2022/03/22 05:43:15;;;;;;;41.35;20.23;;;;;;;1.38;62.21;100591.00;5222583;28;20517;-69
2022/03/22 05:46:05;;;;;;;47.60;20.30;;;;;;;1.25;62.00;100600.09;5222541;28;20056;-66
2022/03/22 05:48:56;;;;;;;46.00;20.08;;;;;;;1.24;61.33;100590.56;5220823;28;20048;-65
2022/03/22 05:51:46;;;;;;;51.75;20.88;;;;;;;1.22;61.82;100579.28;5222837;28;20059;-67
2022/03/22 05:54:36;;;;;;;40.65;19.45;;;;;;;1.39;62.19;100594.47;5222468;28;20052;-67
2022/03/22 05:57:26;;;;;;;52.60;19.33;;;;;;;1.41;63.44;100593.53;5222038;28;20114;-66
2022/03/22 06:00:18;;;;;;;46.97;20.65;;;;;;;1.55;63.10;100594.84;5209304;28;20048;-66
2022/03/22 06:03:08;;;;;;;49.63;21.25;;;;;;;1.63;62.64;100590.25;5223648;28;20063;-66
2022/03/22 06:05:59;;;;;;;46.05;21.75;;;;;;;1.53;63.91;100596.69;5222366;28;20155;-66
2022/03/22 06:08:50;;;;;;;38.83;19.00;;;;;;;1.58;63.96;100589.53;5222457;28;20067;-67
2022/03/22 06:11:41;;;;;;;52.78;20.38;;;;;;;1.67;63.46;100596.25;5221890;28;20060;-66
2022/03/22 06:14:32;;;;;;;43.42;20.63;;;;;;;1.62;65.14;100593.75;5222078;28;20084;-66
2022/03/22 06:17:23;;;;;;;49.83;23.23;;;;;;;2.05;64.34;100584.53;5220983;28;21619;-65
2022/03/22 06:20:15;;;;;;;50.90;22.83;;;;;;;1.97;63.04;100594.41;5218974;28;20584;-66
2022/03/22 06:23:07;;;;;;;50.83;20.77;;;;;;;1.96;62.74;100592.69;5221028;28;20055;-68
2022/03/22 06:25:57;;;;;;;47.80;20.45;;;;;;;1.97;62.54;100583.94;5220443;28;20102;-69
2022/03/22 06:28:48;;;;;;;46.47;21.52;;;;;;;2.04;62.52;100590.66;5220678;28;20045;-67
2022/03/22 06:31:39;;;;;;;44.78;20.08;;;;;;;2.06;62.28;100591.50;5220209;28;20064;-68
2022/03/22 06:34:32;;;;;;;50.78;20.45;;;;;;;2.15;62.79;100583.31;5215730;28;20202;-68
2022/03/22 06:37:22;;;;;;;53.22;21.73;;;;;;;1.94;62.73;100550.03;5220266;28;20099;-67
2022/03/22 06:40:14;;;;;;;40.83;19.85;;;;;;;2.20;62.27;100573.56;5218949;28;20048;-68
2022/03/22 06:43:07;;;;;;;42.75;21.30;;;;;;;2.43;62.96;100588.47;5220926;28;20075;-67
2022/03/22 06:45:58;;;;;;;51.60;21.95;;;;;;;2.52;64.23;100596.00;5219751;28;20045;-68
2022/03/22 06:48:48;;;;;;;52.78;23.70;;;;;;;2.97;63.59;100604.88;5220916;28;20112;-68
2022/03/22 06:51:44;;;;;;;46.33;23.38;;;;;;;3.10;63.97;100587.78;5222508;28;20102;-67
2022/03/22 06:54:34;;;;;;;53.30;23.83;;;;;;;2.97;63.94;100592.63;5216951;28;20119;-68
2022/03/22 06:57:27;;;;;;;50.88;23.65;;;;;;;2.82;63.79;100601.91;5213706;28;20049;-67
2022/03/22 07:00:19;;;;;;;48.67;22.83;;;;;;;3.08;63.19;100607.97;5222135;28;20052;-68
2022/03/22 07:03:10;;;;;;;51.67;23.05;;;;;;;3.41;63.21;100603.22;5221689;28;20194;-69
2022/03/22 07:06:00;;;;;;;55.65;23.20;;;;;;;3.68;62.89;100601.28;5220773;28;20426;-68
2022/03/22 07:08:50;;;;;;;50.03;24.25;;;;;;;3.89;61.20;100603.97;5222292;28;20053;-68
2022/03/22 07:11:52;;;;;;;49.10;24.33;;;;;;;4.25;60.89;100609.47;5220553;28;20045;-69
2022/03/22 07:14:42;;;;;;;49.53;23.73;;;;;;;5.07;58.29;100602.41;5216029;28;20056;-67
2022/03/22 07:17:32;;;;;;;40.55;22.40;;;;;;;5.01;58.14;100612.34;5221014;28;20052;-67
2022/03/22 07:20:23;;;;;;;44.15;22.00;;;;;;;5.30;57.06;100606.59;5215296;28;20074;-66
2022/03/22 07:23:13;;;;;;;46.40;22.80;;;;;;;5.85;55.03;100616.28;5225314;28;20525;-66
2022/03/22 07:26:03;;;;;;;37.90;20.00;;;;;;;6.69;51.75;100608.59;5218781;28;20577;-66
2022/03/22 07:28:54;;;;;;;45.30;21.52;;;;;;;6.68;52.62;100596.38;5224618;28;20045;-67
2022/03/22 07:31:43;;;;;;;47.80;22.08;;;;;;;7.35;52.55;100605.09;5225496;28;20519;-67
2022/03/22 07:34:34;;;;;;;39.03;20.70;;;;;;;8.86;47.18;100599.00;5224817;28;20056;-67
2022/03/22 07:37:24;;;;;;;37.72;19.80;;;;;;;10.22;42.58;100600.03;5223996;28;20083;-68
2022/03/22 07:40:14;;;;;;;35.15;19.60;;;;;;;10.70;41.48;100584.47;5223785;28;20048;-67
2022/03/22 07:43:05;;;;;;;37.90;19.85;;;;;;;10.85;41.62;100581.69;5225309;28;20432;-67
2022/03/22 07:45:55;;;;;;;36.65;19.75;;;;;;;11.41;39.58;100576.81;5221901;28;20041;-67
2022/03/22 07:48:45;;;;;;;39.45;19.88;;;;;;;12.43;38.47;100598.50;5221710;28;20059;-67
2022/03/22 07:54:44;;;;;;;34.33;18.35;;;;;;;13.26;35.71;100597.41;5223786;28;20056;-68
2022/03/22 07:57:34;;;;;;;28.42;17.13;;;;;;;12.55;37.30;100570.13;5209208;28;20372;-68
2022/03/22 08:00:26;;;;;;;33.40;16.60;;;;;;;12.95;37.22;100593.66;5224529;28;20048;-67
2022/03/22 08:03:18;;;;;;;31.48;17.08;;;;;;;13.44;36.63;100600.41;5220768;28;20061;-69
2022/03/22 08:06:09;;;;;;;28.83;17.02;;;;;;;14.00;34.46;100586.13;5209175;28;20080;-69
2022/03/22 08:08:58;;;;;;;26.30;15.95;;;;;;;14.18;34.90;100587.28;5224173;28;20057;-69
2022/03/22 08:11:50;;;;;;;28.58;16.77;;;;;;;14.85;33.70;100601.25;5224585;28;20056;-69
2022/03/22 08:14:40;;;;;;;25.35;15.45;;;;;;;14.83;33.94;100601.34;5209423;28;20107;-68
2022/03/22 08:17:30;;;;;;;28.05;14.98;;;;;;;14.97;31.13;100601.03;5222402;28;20084;-68
2022/03/22 08:20:27;;;;;;;26.95;14.60;;;;;;;14.29;31.17;100608.56;5223593;28;20053;-68
2022/03/22 08:23:18;;;;;;;24.95;14.35;;;;;;;13.94;31.09;100603.50;5224646;28;20049;-68
2022/03/22 08:26:08;;;;;;;25.10;14.80;;;;;;;14.78;31.73;100598.25;5224108;28;20045;-68
2022/03/22 08:28:58;;;;;;;24.55;14.45;;;;;;;15.60;30.59;100594.66;5224148;28;20411;-68
2022/03/22 08:31:51;;;;;;;25.13;14.65;;;;;;;15.75;30.59;100601.31;5223216;28;20060;-67
2022/03/22 08:34:41;;;;;;;23.90;14.50;;;;;;;15.96;30.07;100598.56;5223827;28;20056;-67
2022/03/22 08:37:31;;;;;;;25.45;14.35;;;;;;;16.01;30.05;100598.97;5224035;28;20059;-67
2022/03/22 08:40:22;;;;;;;20.73;12.57;;;;;;;15.92;28.57;100584.59;5222641;28;20418;-67
2022/03/22 08:43:12;;;;;;;22.63;12.70;;;;;;;15.64;30.24;100596.91;5223952;28;20431;-67
2022/03/22 08:46:05;;;;;;;28.83;13.63;;;;;;;16.25;28.75;100590.53;5223027;28;20051;-68
2022/03/22 08:48:56;;;;;;;22.70;14.05;;;;;;;16.44;29.73;100590.50;5222648;28;20546;-67
2022/03/22 08:51:46;;;;;;;18.92;12.52;;;;;;;15.37;29.98;100592.19;5223304;28;20474;-66
2022/03/22 08:54:37;;;;;;;24.88;13.85;;;;;;;16.25;29.25;100574.47;5223645;28;20056;-66
2022/03/22 08:57:27;;;;;;;21.80;12.95;;;;;;;16.37;27.51;100586.72;5223773;28;20059;-67
2022/03/22 09:00:19;;;;;;;19.48;13.77;;;;;;;17.33;28.85;100581.25;5223071;28;20049;-67
2022/03/22 09:03:12;;;;;;;32.17;15.05;;;;;;;17.15;28.05;100578.50;5223368;28;20427;-67
2022/03/22 09:06:09;;;;;;;27.38;15.60;;;;;;;17.17;29.33;100581.06;5222597;28;20107;-67
2022/03/22 09:08:59;;;;;;;24.08;14.77;;;;;;;17.70;29.71;100575.81;5223788;28;20071;-67
2022/03/22 09:11:50;;;;;;;22.08;15.07;;;;;;;18.15;28.71;100579.50;5219687;28;20107;-67
2022/03/22 09:14:40;;;;;;;23.27;14.68;;;;;;;18.31;26.95;100575.09;5223592;28;20131;-67
2022/03/22 09:17:31;;;;;;;24.58;15.18;;;;;;;17.64;27.38;100575.56;5224019;28;20056;-67
2022/03/22 09:20:22;;;;;;;23.90;15.32;;;;;;;17.54;29.52;100573.78;5209129;28;20048;-68
2022/03/22 09:23:13;;;;;;;20.65;14.63;;;;;;;18.11;29.09;100580.78;5223571;28;20063;-67
2022/03/22 09:26:03;;;;;;;22.08;14.25;;;;;;;18.74;27.03;100583.31;5207951;28;20045;-67
2022/03/22 09:28:53;;;;;;;25.75;14.75;;;;;;;18.58;26.37;100584.03;5223148;28;20558;-67
2022/03/22 09:31:43;;;;;;;22.13;14.00;;;;;;;19.07;27.38;100578.13;5223423;28;20325;-67
2022/03/22 09:34:33;;;;;;;21.15;15.02;;;;;;;17.42;27.01;100582.19;5223528;28;20059;-68
2022/03/22 09:37:27;;;;;;;22.30;14.65;;;;;;;18.35;27.68;100580.16;5222664;28;20838;-67
2022/03/22 09:40:19;;;;;;;25.13;15.52;;;;;;;18.13;29.20;100576.09;5222474;28;20155;-67
2022/03/22 09:43:09;;;;;;;22.52;14.48;;;;;;;18.75;26.19;100575.13;5222435;28;20072;-67
2022/03/22 09:46:02;;;;;;;21.80;14.98;;;;;;;18.31;26.97;100566.22;5222501;28;20059;-68
2022/03/22 09:48:52;;;;;;;24.00;15.00;;;;;;;18.40;27.46;100577.84;5224564;28;20071;-67
2022/03/22 09:51:47;;;;;;;33.80;15.30;;;;;;;18.67;28.00;100566.94;5223280;28;20374;-67
2022/03/22 09:54:39;;;;;;;24.15;14.52;;;;;;;19.57;26.64;100558.50;5208947;28;20151;-67
2022/03/22 09:57:29;;;;;;;22.50;14.43;;;;;;;19.92;26.44;100571.72;5222979;28;20060;-68
2022/03/22 10:00:19;;;;;;;25.85;14.23;;;;;;;18.26;25.94;100563.97;5223174;28;20071;-67
2022/03/22 10:03:18;;;;;;;22.25;15.10;;;;;;;18.18;26.36;100561.22;5221755;28;20052;-68
2022/03/22 10:06:13;;;;;;;24.02;14.30;;;;;;;19.29;25.75;100561.44;5221457;28;20138;-68
2022/03/22 10:09:05;;;;;;;28.00;15.30;;;;;;;19.20;24.94;100551.66;5223088;28;20060;-67
2022/03/22 10:11:55;;;;;;;21.80;14.60;;;;;;;19.55;25.74;100545.22;5219185;28;20415;-67
2022/03/22 10:14:45;;;;;;;23.83;15.80;;;;;;;19.70;26.63;100554.38;5207194;28;20057;-68
2022/03/22 10:17:36;;;;;;;22.67;14.82;;;;;;;19.67;25.31;100538.56;5222739;28;20206;-67
2022/03/22 10:20:29;;;;;;;22.90;15.45;;;;;;;20.02;26.40;100551.91;5222005;28;20085;-68
2022/03/22 10:23:19;;;;;;;21.02;14.77;;;;;;;19.79;25.28;100544.47;5222091;28;20049;-67
2022/03/22 10:26:09;;;;;;;22.20;15.55;;;;;;;19.40;25.88;100546.84;5222903;28;20421;-68
2022/03/22 10:28:59;;;;;;;23.00;15.38;;;;;;;20.25;26.71;100544.84;5222472;28;20501;-68
2022/03/22 10:31:50;;;;;;;22.75;15.95;;;;;;;19.17;24.57;100535.84;5205933;28;20064;-67
2022/03/22 10:34:40;;;;;;;21.90;15.38;;;;;;;19.85;26.22;100538.41;5221239;28;20459;-68
2022/03/22 10:37:30;;;;;;;26.25;16.05;;;;;;;19.09;26.43;100538.50;5207195;28;20063;-67
2022/03/22 10:40:21;;;;;;;24.75;15.55;;;;;;;19.46;26.00;100530.91;5222104;28;20130;-67
2022/03/22 10:43:32;;;;;;;25.05;15.20;;;;;;;17.79;27.92;100532.03;5222954;28;20080;-67
2022/03/22 10:46:27;;;;;;;28.25;16.23;;;;;;;18.22;28.25;100534.91;5221762;28;20056;-67
2022/03/22 10:49:19;;;;;;;22.95;15.40;;;;;;;19.55;27.88;100522.88;5223031;28;20048;-67
2022/03/22 10:52:29;;;;;;;25.50;16.38;;;;;;;18.78;27.89;100525.59;5225785;28;20191;-67
2022/03/22 10:55:21;;;;;;;29.45;16.20;;;;;;;17.11;29.54;100524.34;5226618;28;20130;-67
2022/03/22 10:58:14;;;;;;;34.00;16.60;;;;;;;17.56;29.98;100514.66;5226384;28;20063;-67
2022/03/22 11:01:06;;;;;;;29.85;16.90;;;;;;;17.73;27.29;100523.72;5212238;28;20438;-67
2022/03/22 11:03:57;;;;;;;27.02;16.63;;;;;;;17.52;30.33;100524.84;5226363;28;20139;-67
2022/03/22 11:06:48;;;;;;;27.40;16.92;;;;;;;18.02;30.21;100528.88;5212104;28;20420;-68
2022/03/22 11:09:38;;;;;;;21.38;15.15;;;;;;;17.26;28.59;100516.69;5226087;28;20059;-67
2022/03/22 11:12:28;;;;;;;32.65;16.17;;;;;;;17.31;29.55;100513.53;5226329;28;20060;-67
2022/03/22 11:15:20;;;;;;;26.52;16.17;;;;;;;18.16;27.40;100519.44;5225740;28;20079;-67
2022/03/22 11:18:10;;;;;;;28.63;15.93;;;;;;;18.33;27.90;100510.50;5225736;28;20052;-67
2022/03/22 11:21:03;;;;;;;30.42;15.52;;;;;;;18.29;27.57;100518.00;5224017;28;20056;-67
2022/03/22 11:24:08;;;;;;;30.48;15.55;;;;;;;18.04;27.22;100510.75;5224929;28;20055;-67
2022/03/22 11:27:06;;;;;;;27.27;16.35;;;;;;;18.05;26.99;100509.78;5225460;28;20053;-69
2022/03/22 11:29:56;;;;;;;31.00;18.52;;;;;;;18.27;26.95;100489.63;5224573;28;20056;-67
2022/03/22 11:35:59;;;;;;;33.28;20.38;;;;;;;18.34;28.57;100497.91;5225503;28;20114;-67
2022/03/22 11:38:54;;;;;;;27.45;17.05;;;;;;;18.99;27.52;100499.13;5225983;28;20423;-67
2022/03/22 11:45:00;;;;;;;26.75;16.35;;;;;;;18.81;27.92;100493.03;5225266;28;20056;-67
2022/03/22 11:47:54;;;;;;;27.83;16.50;;;;;;;19.02;27.53;100484.53;5225450;28;20079;-67
2022/03/22 11:50:45;;;;;;;25.13;17.05;;;;;;;17.95;26.77;100491.09;5225559;28;20064;-67
2022/03/22 11:53:42;;;;;;;29.00;16.42;;;;;;;16.96;29.27;100480.31;5225425;28;20308;-69
2022/03/22 11:56:33;;;;;;;30.33;15.52;;;;;;;17.70;30.90;100487.28;5225261;28;20451;-68
2022/03/22 11:59:23;;;;;;;27.10;17.13;;;;;;;18.28;30.09;100484.13;5225331;28;20151;-69
2022/03/22 12:02:15;;;;;;;25.23;17.08;;;;;;;18.31;28.92;100461.50;5224762;28;20565;-68
2022/03/22 12:05:06;;;;;;;24.45;15.50;;;;;;;18.07;28.30;100476.41;5224956;28;20118;-70
2022/03/22 12:08:05;;;;;;;27.52;17.13;;;;;;;18.16;29.59;100477.31;5225371;28;20198;-69
2022/03/22 12:10:56;;;;;;;29.83;16.13;;;;;;;18.69;28.60;100468.25;5222663;28;20563;-69
2022/03/22 12:13:50;;;;;;;26.92;16.35;;;;;;;18.79;30.23;100470.84;5207468;28;20457;-69
2022/03/22 12:16:50;;;;;;;29.30;17.17;;;;;;;18.06;27.59;100463.97;5223297;28;20063;-68
2022/03/22 12:19:40;;;;;;;26.50;17.08;;;;;;;17.35;29.01;100461.28;5223585;28;20116;-67
2022/03/22 12:22:31;;;;;;;26.05;16.35;;;;;;;17.33;28.77;100458.78;5222632;28;20462;-68
2022/03/22 12:25:25;;;;;;;27.85;16.77;;;;;;;17.69;28.32;100461.47;5224045;28;20134;-67
2022/03/22 12:28:16;;;;;;;30.80;17.65;;;;;;;16.97;28.71;100459.72;5222826;28;20056;-68
2022/03/22 12:31:11;;;;;;;28.13;17.40;;;;;;;17.47;29.38;100445.84;5222083;28;20506;-67
2022/03/22 12:34:01;;;;;;;26.75;17.23;;;;;;;16.97;28.53;100447.16;5224138;28;20266;-68
2022/03/22 12:36:52;;;;;;;27.55;17.50;;;;;;;17.34;29.72;100448.88;5222365;28;20056;-66
2022/03/22 12:39:44;;;;;;;30.92;16.90;;;;;;;17.80;27.62;100442.47;5224305;28;20067;-67
2022/03/22 12:42:50;;;;;;;29.02;17.08;;;;;;;17.59;31.62;100439.25;5221834;28;20422;-65
2022/03/22 12:45:43;;;;;;;27.30;17.40;;;;;;;17.81;30.29;100436.13;5222936;28;20061;-66
2022/03/22 12:48:33;;;;;;;24.17;16.48;;;;;;;17.48;29.95;100445.69;5222493;28;20059;-66
2022/03/22 12:51:27;;;;;;;;;;;;;;;17.68;29.52;100438.34;5221456;28;20118;-66
2022/03/22 12:54:17;;;;;;;27.50;17.05;;;;;;;17.62;28.63;100430.91;5223438;28;19928;-67
2022/03/22 12:57:10;;;;;;;29.70;16.65;;;;;;;17.87;28.51;100433.81;5222855;28;20102;-66
2022/03/22 13:00:03;;;;;;;28.10;17.55;;;;;;;17.48;28.26;100426.94;5222976;28;20609;-70
2022/03/22 13:02:55;;;;;;;28.70;17.48;;;;;;;17.61;30.34;100415.78;5208727;28;20052;-67
2022/03/22 13:05:48;;;;;;;30.83;17.08;;;;;;;17.80;29.24;100417.50;5223621;28;20072;-67
2022/03/22 13:11:52;;;;;;;28.55;17.52;;;;;;;17.97;28.06;100405.88;5223598;28;20491;-67
2022/03/22 13:15:02;;;;;;;28.70;16.33;;;;;;;18.01;27.61;100401.03;5207470;28;20052;-67
2022/03/22 13:17:53;;;;;;;27.85;17.80;;;;;;;17.83;29.45;100401.91;5223689;28;20252;-67
2022/03/22 13:20:42;;;;;;;30.13;18.10;;;;;;;17.88;28.50;100403.28;5223442;28;20191;-67
2022/03/22 13:23:33;;;;;;;29.58;17.15;;;;;;;18.08;28.39;100402.09;5223867;28;20049;-67
2022/03/22 13:26:23;;;;;;;32.80;17.48;;;;;;;18.11;27.60;100403.63;5222288;28;20053;-69
2022/03/22 13:29:15;;;;;;;25.85;16.55;;;;;;;18.30;27.64;100398.03;5208188;28;20107;-67
2022/03/22 13:32:07;;;;;;;25.42;16.83;;;;;;;18.13;27.25;100393.56;5209956;28;20114;-68
2022/03/22 13:35:02;;;;;;;28.75;17.58;;;;;;;17.57;29.58;100395.66;5222371;28;20052;-68
2022/03/22 13:37:53;;;;;;;30.75;17.80;;;;;;;17.35;30.12;100394.25;5223096;28;20142;-68
2022/03/22 13:40:45;;;;;;;28.70;17.60;;;;;;;17.57;30.35;100358.09;5222116;28;20049;-68
2022/03/22 13:43:45;;;;;;;31.80;17.83;;;;;;;16.79;30.14;100388.19;5222495;28;20057;-68
2022/03/22 13:46:35;;;;;;;30.50;18.02;;;;;;;17.57;30.65;100371.50;5223113;28;20380;-68